sensor_id;sensor_type;location;lat;lon;timestamp;pressure;altitude;pressure_sealevel;temperature;humidity
42297;BME280;72430;47.456;19.016;2024-01-30T00:01:14;102780.84;;;-2.66;74.94
42297;BME280;72430;47.456;19.016;2024-01-30T00:04:17;102782.50;;;-2.85;77.05
42297;BME280;72430;47.456;19.016;2024-01-30T00:07:19;102792.28;;;-2.59;76.21
42297;BME280;72430;47.456;19.016;2024-01-30T00:10:21;102788.84;;;-2.47;75.53
42297;BME280;72430;47.456;19.016;2024-01-30T00:13:23;102784.41;;;-2.56;76.30
42297;BME280;72430;47.456;19.016;2024-01-30T00:16:27;102779.97;;;-2.65;76.98
42297;BME280;72430;47.456;19.016;2024-01-30T00:19:29;102780.06;;;-2.41;74.81
42297;BME280;72430;47.456;19.016;2024-01-30T00:22:31;102787.16;;;-2.25;74.60
42297;BME280;72430;47.456;19.016;2024-01-30T00:25:33;102783.63;;;-2.35;75.17
42297;BME280;72430;47.456;19.016;2024-01-30T00:28:35;102785.25;;;-2.62;76.36
42297;BME280;72430;47.456;19.016;2024-01-30T00:31:37;102792.25;;;-2.65;73.89
42297;BME280;72430;47.456;19.016;2024-01-30T00:34:42;102793.84;;;-3.00;75.15
42297;BME280;72430;47.456;19.016;2024-01-30T00:37:44;102804.13;;;-3.31;75.46
42297;BME280;72430;47.456;19.016;2024-01-30T00:40:46;102798.00;;;-3.29;75.50
42297;BME280;72430;47.456;19.016;2024-01-30T00:43:48;102806.06;;;-3.08;73.59
42297;BME280;72430;47.456;19.016;2024-01-30T00:46:50;102800.72;;;-3.16;73.56
42297;BME280;72430;47.456;19.016;2024-01-30T00:49:52;102810.25;;;-3.37;74.81
42297;BME280;72430;47.456;19.016;2024-01-30T00:52:54;102815.53;;;-3.32;74.57
42297;BME280;72430;47.456;19.016;2024-01-30T00:55:55;102801.41;;;-3.44;75.83
42297;BME280;72430;47.456;19.016;2024-01-30T00:58:57;102796.28;;;-3.25;73.52
42297;BME280;72430;47.456;19.016;2024-01-30T01:01:59;102801.63;;;-3.19;72.67
42297;BME280;72430;47.456;19.016;2024-01-30T01:05:02;102804.78;;;-3.59;75.79
42297;BME280;72430;47.456;19.016;2024-01-30T01:08:04;102797.00;;;-3.48;74.01
42297;BME280;72430;47.456;19.016;2024-01-30T01:11:06;102804.94;;;-3.40;75.67
42297;BME280;72430;47.456;19.016;2024-01-30T01:14:08;102793.78;;;-3.03;73.37
42297;BME280;72430;47.456;19.016;2024-01-30T01:17:10;102784.91;;;-3.16;74.60
42297;BME280;72430;47.456;19.016;2024-01-30T01:20:12;102783.22;;;-3.13;73.66
42297;BME280;72430;47.456;19.016;2024-01-30T01:23:14;102785.84;;;-3.13;74.40
42297;BME280;72430;47.456;19.016;2024-01-30T01:26:16;102782.34;;;-3.10;74.80
42297;BME280;72430;47.456;19.016;2024-01-30T01:29:18;102782.44;;;-2.98;74.34
42297;BME280;72430;47.456;19.016;2024-01-30T01:32:20;102773.63;;;-3.03;76.06
42297;BME280;72430;47.456;19.016;2024-01-30T01:35:23;102772.72;;;-3.03;75.11
42297;BME280;72430;47.456;19.016;2024-01-30T01:38:29;102775.38;;;-2.97;74.98
42297;BME280;72430;47.456;19.016;2024-01-30T01:41:32;102773.41;;;-3.31;77.59
42297;BME280;72430;47.456;19.016;2024-01-30T01:44:33;102776.78;;;-3.51;79.01
42297;BME280;72430;47.456;19.016;2024-01-30T01:47:35;102774.25;;;-3.37;76.26
42297;BME280;72430;47.456;19.016;2024-01-30T01:50:38;102762.84;;;-3.35;74.47
42297;BME280;72430;47.456;19.016;2024-01-30T01:53:41;102778.56;;;-3.48;75.54
42297;BME280;72430;47.456;19.016;2024-01-30T01:56:43;102775.81;;;-3.62;76.25
42297;BME280;72430;47.456;19.016;2024-01-30T01:59:45;102783.75;;;-3.53;74.96
42297;BME280;72430;47.456;19.016;2024-01-30T02:02:47;102775.69;;;-3.73;77.50
42297;BME280;72430;47.456;19.016;2024-01-30T02:05:51;102774.56;;;-3.97;77.03
42297;BME280;72430;47.456;19.016;2024-01-30T02:08:56;102767.59;;;-3.95;77.42
42297;BME280;72430;47.456;19.016;2024-01-30T02:11:59;102779.84;;;-3.97;77.50
42297;BME280;72430;47.456;19.016;2024-01-30T02:15:02;102776.38;;;-3.93;76.07
42297;BME280;72430;47.456;19.016;2024-01-30T02:18:04;102775.38;;;-4.04;77.19
42297;BME280;72430;47.456;19.016;2024-01-30T02:21:06;102772.09;;;-3.81;78.69
42297;BME280;72430;47.456;19.016;2024-01-30T02:24:07;102765.06;;;-3.84;78.64
42297;BME280;72430;47.456;19.016;2024-01-30T02:27:09;102774.72;;;-3.83;77.80
42297;BME280;72430;47.456;19.016;2024-01-30T02:30:12;102772.28;;;-3.61;77.59
42297;BME280;72430;47.456;19.016;2024-01-30T02:33:14;102770.25;;;-3.92;78.42
42297;BME280;72430;47.456;19.016;2024-01-30T02:36:16;102771.09;;;-3.94;77.05
42297;BME280;72430;47.456;19.016;2024-01-30T02:39:18;102769.28;;;-4.01;75.38
42297;BME280;72430;47.456;19.016;2024-01-30T02:42:19;102773.72;;;-3.97;75.58
42297;BME280;72430;47.456;19.016;2024-01-30T02:45:21;102775.34;;;-4.09;75.95
42297;BME280;72430;47.456;19.016;2024-01-30T02:48:23;102774.56;;;-3.97;76.47
42297;BME280;72430;47.456;19.016;2024-01-30T02:51:25;102764.81;;;-4.10;75.73
42297;BME280;72430;47.456;19.016;2024-01-30T02:54:27;102779.63;;;-4.19;76.03
42297;BME280;72430;47.456;19.016;2024-01-30T02:57:29;102770.63;;;-4.38;77.30
42297;BME280;72430;47.456;19.016;2024-01-30T03:00:31;102774.81;;;-4.55;77.52
42297;BME280;72430;47.456;19.016;2024-01-30T03:03:33;102772.47;;;-4.31;76.01
42297;BME280;72430;47.456;19.016;2024-01-30T03:06:36;102773.28;;;-4.36;77.45
42297;BME280;72430;47.456;19.016;2024-01-30T03:09:38;102767.97;;;-4.39;77.36
42297;BME280;72430;47.456;19.016;2024-01-30T03:12:42;102768.88;;;-4.37;77.96
42297;BME280;72430;47.456;19.016;2024-01-30T03:15:44;102774.38;;;-4.19;76.73
42297;BME280;72430;47.456;19.016;2024-01-30T03:18:46;102774.16;;;-4.36;77.16
42297;BME280;72430;47.456;19.016;2024-01-30T03:21:48;102770.66;;;-4.35;77.76
42297;BME280;72430;47.456;19.016;2024-01-30T03:24:50;102769.00;;;-4.26;76.21
42297;BME280;72430;47.456;19.016;2024-01-30T03:27:52;102767.41;;;-4.13;74.26
42297;BME280;72430;47.456;19.016;2024-01-30T03:30:54;102770.69;;;-4.33;76.27
42297;BME280;72430;47.456;19.016;2024-01-30T03:33:56;102771.34;;;-4.53;77.03
42297;BME280;72430;47.456;19.016;2024-01-30T03:36:58;102783.97;;;-4.92;77.28
42297;BME280;72430;47.456;19.016;2024-01-30T03:40:01;102774.81;;;-4.52;76.24
42297;BME280;72430;47.456;19.016;2024-01-30T03:43:04;102761.78;;;-4.45;76.43
42297;BME280;72430;47.456;19.016;2024-01-30T03:46:06;102763.66;;;-4.34;77.63
42297;BME280;72430;47.456;19.016;2024-01-30T03:49:10;102747.81;;;-4.40;79.93
42297;BME280;72430;47.456;19.016;2024-01-30T03:52:12;102746.22;;;-4.27;79.68
42297;BME280;72430;47.456;19.016;2024-01-30T03:55:14;102754.22;;;-4.16;80.48
42297;BME280;72430;47.456;19.016;2024-01-30T03:58:16;102755.16;;;-4.11;79.46
42297;BME280;72430;47.456;19.016;2024-01-30T04:01:18;102756.94;;;-4.07;79.89
42297;BME280;72430;47.456;19.016;2024-01-30T04:04:20;102753.34;;;-4.15;78.74
42297;BME280;72430;47.456;19.016;2024-01-30T04:07:22;102755.09;;;-4.18;78.33
42297;BME280;72430;47.456;19.016;2024-01-30T04:10:25;102754.56;;;-4.61;77.81
42297;BME280;72430;47.456;19.016;2024-01-30T04:13:27;102750.13;;;-4.67;77.14
42297;BME280;72430;47.456;19.016;2024-01-30T04:16:30;102746.00;;;-4.45;76.44
42297;BME280;72430;47.456;19.016;2024-01-30T04:19:32;102750.28;;;-4.54;76.93
42297;BME280;72430;47.456;19.016;2024-01-30T04:22:34;102747.53;;;-4.62;77.05
42297;BME280;72430;47.456;19.016;2024-01-30T04:25:36;102741.41;;;-4.64;77.80
42297;BME280;72430;47.456;19.016;2024-01-30T04:28:37;102743.06;;;-4.69;76.78
42297;BME280;72430;47.456;19.016;2024-01-30T04:31:39;102741.41;;;-4.61;76.27
42297;BME280;72430;47.456;19.016;2024-01-30T04:34:41;102743.94;;;-4.70;76.57
42297;BME280;72430;47.456;19.016;2024-01-30T04:37:43;102745.63;;;-4.76;77.43
42297;BME280;72430;47.456;19.016;2024-01-30T04:40:45;102744.72;;;-4.79;76.92
42297;BME280;72430;47.456;19.016;2024-01-30T04:43:47;102750.78;;;-4.83;76.99
42297;BME280;72430;47.456;19.016;2024-01-30T04:46:49;102750.69;;;-4.90;76.64
42297;BME280;72430;47.456;19.016;2024-01-30T04:49:51;102761.00;;;-5.04;78.13
42297;BME280;72430;47.456;19.016;2024-01-30T04:52:53;102760.81;;;-5.16;78.33
42297;BME280;72430;47.456;19.016;2024-01-30T04:55:55;102755.03;;;-4.93;76.63
42297;BME280;72430;47.456;19.016;2024-01-30T04:58:57;102753.38;;;-4.87;76.39
42297;BME280;72430;47.456;19.016;2024-01-30T05:01:59;102761.34;;;-4.79;75.77
42297;BME280;72430;47.456;19.016;2024-01-30T05:05:01;102763.13;;;-4.78;78.06
42297;BME280;72430;47.456;19.016;2024-01-30T05:08:03;102764.41;;;-4.46;76.35
42297;BME280;72430;47.456;19.016;2024-01-30T05:11:05;102768.78;;;-4.43;76.75
42297;BME280;72430;47.456;19.016;2024-01-30T05:14:07;102776.69;;;-4.43;77.00
42297;BME280;72430;47.456;19.016;2024-01-30T05:17:10;102775.63;;;-4.60;78.11
42297;BME280;72430;47.456;19.016;2024-01-30T05:20:14;102776.34;;;-4.72;77.55
42297;BME280;72430;47.456;19.016;2024-01-30T05:23:16;102779.94;;;-4.63;76.02
42297;BME280;72430;47.456;19.016;2024-01-30T05:26:18;102792.78;;;-4.85;77.05
42297;BME280;72430;47.456;19.016;2024-01-30T05:29:20;102782.41;;;-4.76;77.76
42297;BME280;72430;47.456;19.016;2024-01-30T05:32:22;102786.91;;;-4.67;77.68
42297;BME280;72430;47.456;19.016;2024-01-30T05:35:24;102782.50;;;-4.69;77.98
42297;BME280;72430;47.456;19.016;2024-01-30T05:38:25;102790.09;;;-4.90;78.56
42297;BME280;72430;47.456;19.016;2024-01-30T05:41:27;102799.03;;;-4.78;78.70
42297;BME280;72430;47.456;19.016;2024-01-30T05:44:29;102790.56;;;-4.55;78.82
42297;BME280;72430;47.456;19.016;2024-01-30T05:47:31;102793.91;;;-4.67;78.82
42297;BME280;72430;47.456;19.016;2024-01-30T05:50:33;102795.06;;;-4.47;77.83
42297;BME280;72430;47.456;19.016;2024-01-30T05:53:35;102781.63;;;-4.68;78.18
42297;BME280;72430;47.456;19.016;2024-01-30T05:56:37;102790.47;;;-4.63;78.62
42297;BME280;72430;47.456;19.016;2024-01-30T05:59:39;102783.59;;;-4.55;78.00
42297;BME280;72430;47.456;19.016;2024-01-30T06:02:42;102786.78;;;-4.78;78.20
42297;BME280;72430;47.456;19.016;2024-01-30T06:05:44;102791.94;;;-4.82;79.59
42297;BME280;72430;47.456;19.016;2024-01-30T06:08:46;102778.13;;;-4.70;77.54
42297;BME280;72430;47.456;19.016;2024-01-30T06:11:48;102794.53;;;-4.87;77.30
42297;BME280;72430;47.456;19.016;2024-01-30T06:14:50;102803.34;;;-4.83;76.71
42297;BME280;72430;47.456;19.016;2024-01-30T06:17:51;102794.44;;;-4.93;79.04
42297;BME280;72430;47.456;19.016;2024-01-30T06:20:53;102796.38;;;-4.80;78.10
42297;BME280;72430;47.456;19.016;2024-01-30T06:23:55;102801.81;;;-5.26;78.06
42297;BME280;72430;47.456;19.016;2024-01-30T06:26:57;102799.22;;;-5.24;79.72
42297;BME280;72430;47.456;19.016;2024-01-30T06:29:59;102802.13;;;-5.06;78.46
42297;BME280;72430;47.456;19.016;2024-01-30T06:33:01;102807.66;;;-4.87;78.95
42297;BME280;72430;47.456;19.016;2024-01-30T06:36:03;102808.72;;;-4.74;78.70
42297;BME280;72430;47.456;19.016;2024-01-30T06:39:05;102807.91;;;-4.72;78.85
42297;BME280;72430;47.456;19.016;2024-01-30T06:42:07;102803.28;;;-4.88;78.99
42297;BME280;72430;47.456;19.016;2024-01-30T06:45:09;102804.34;;;-4.75;80.62
42297;BME280;72430;47.456;19.016;2024-01-30T06:48:11;102803.59;;;-4.66;80.40
42297;BME280;72430;47.456;19.016;2024-01-30T06:51:13;102804.78;;;-4.42;80.19
42297;BME280;72430;47.456;19.016;2024-01-30T06:54:18;102810.41;;;-4.08;78.35
42297;BME280;72430;47.456;19.016;2024-01-30T06:57:20;102806.88;;;-4.12;79.44
42297;BME280;72430;47.456;19.016;2024-01-30T07:00:23;102812.81;;;-4.30;79.23
42297;BME280;72430;47.456;19.016;2024-01-30T07:03:25;102814.75;;;-4.12;79.98
42297;BME280;72430;47.456;19.016;2024-01-30T07:06:29;102809.84;;;-3.81;78.96
42297;BME280;72430;47.456;19.016;2024-01-30T07:09:31;102812.88;;;-3.37;76.85
42297;BME280;72430;47.456;19.016;2024-01-30T07:12:33;102810.34;;;-3.23;76.83
42297;BME280;72430;47.456;19.016;2024-01-30T07:15:35;102806.00;;;-3.18;76.93
42297;BME280;72430;47.456;19.016;2024-01-30T07:18:38;102799.06;;;-3.03;76.29
42297;BME280;72430;47.456;19.016;2024-01-30T07:21:40;102803.56;;;-2.91;76.46
42297;BME280;72430;47.456;19.016;2024-01-30T07:24:43;102816.75;;;-2.88;76.86
42297;BME280;72430;47.456;19.016;2024-01-30T07:27:47;102813.34;;;-2.70;76.47
42297;BME280;72430;47.456;19.016;2024-01-30T07:30:49;102810.69;;;-2.73;77.71
42297;BME280;72430;47.456;19.016;2024-01-30T07:33:52;102805.28;;;-2.95;78.26
42297;BME280;72430;47.456;19.016;2024-01-30T07:36:54;102797.53;;;-2.65;78.36
42297;BME280;72430;47.456;19.016;2024-01-30T07:39:57;102799.34;;;-2.52;77.58
42297;BME280;72430;47.456;19.016;2024-01-30T07:42:59;102791.56;;;-2.27;78.20
42297;BME280;72430;47.456;19.016;2024-01-30T07:46:01;102792.53;;;-1.91;77.61
42297;BME280;72430;47.456;19.016;2024-01-30T07:49:04;102795.22;;;-1.77;77.75
42297;BME280;72430;47.456;19.016;2024-01-30T07:52:06;102787.28;;;-1.49;77.22
42297;BME280;72430;47.456;19.016;2024-01-30T07:55:09;102785.53;;;-1.57;78.72
42297;BME280;72430;47.456;19.016;2024-01-30T07:58:11;102776.72;;;-1.19;78.32
42297;BME280;72430;47.456;19.016;2024-01-30T08:01:15;102784.63;;;-1.10;78.54
42297;BME280;72430;47.456;19.016;2024-01-30T08:04:17;102782.84;;;-0.95;78.90
42297;BME280;72430;47.456;19.016;2024-01-30T08:07:19;102787.19;;;-0.69;79.39
42297;BME280;72430;47.456;19.016;2024-01-30T08:10:23;102778.22;;;-0.34;79.31
42297;BME280;72430;47.456;19.016;2024-01-30T08:13:25;102792.19;;;-0.04;78.95
42297;BME280;72430;47.456;19.016;2024-01-30T08:16:27;102792.72;;;0.48;78.23
42297;BME280;72430;47.456;19.016;2024-01-30T08:19:29;102786.53;;;0.49;79.99
42297;BME280;72430;47.456;19.016;2024-01-30T08:22:31;102786.19;;;0.91;78.47
42297;BME280;72430;47.456;19.016;2024-01-30T08:25:33;102781.50;;;1.15;77.23
42297;BME280;72430;47.456;19.016;2024-01-30T08:28:35;102788.34;;;1.37;77.62
42297;BME280;72430;47.456;19.016;2024-01-30T08:31:37;102789.00;;;1.57;77.11
42297;BME280;72430;47.456;19.016;2024-01-30T08:34:39;102796.41;;;1.99;75.61
42297;BME280;72430;47.456;19.016;2024-01-30T08:37:41;102790.69;;;2.29;75.17
42297;BME280;72430;47.456;19.016;2024-01-30T08:40:43;102786.81;;;2.49;75.46
42297;BME280;72430;47.456;19.016;2024-01-30T08:43:45;102794.34;;;2.77;76.32
42297;BME280;72430;47.456;19.016;2024-01-30T08:46:46;102789.28;;;3.10;76.17
42297;BME280;72430;47.456;19.016;2024-01-30T08:49:48;102792.09;;;3.48;75.43
42297;BME280;72430;47.456;19.016;2024-01-30T08:52:50;102789.78;;;3.75;73.35
42297;BME280;72430;47.456;19.016;2024-01-30T08:55:52;102784.13;;;3.91;73.78
42297;BME280;72430;47.456;19.016;2024-01-30T08:58:54;102785.94;;;4.28;71.92
42297;BME280;72430;47.456;19.016;2024-01-30T09:01:56;102783.69;;;4.47;72.28
42297;BME280;72430;47.456;19.016;2024-01-30T09:05:12;102781.50;;;4.27;72.59
42297;BME280;72430;47.456;19.016;2024-01-30T09:08:14;102768.25;;;4.60;71.19
42297;BME280;72430;47.456;19.016;2024-01-30T09:11:16;102762.25;;;5.18;72.24
42297;BME280;72430;47.456;19.016;2024-01-30T09:14:18;102761.44;;;6.35;68.91
42297;BME280;72430;47.456;19.016;2024-01-30T09:17:20;102767.00;;;7.32;66.91
42297;BME280;72430;47.456;19.016;2024-01-30T09:20:22;102761.88;;;7.74;64.09
42297;BME280;72430;47.456;19.016;2024-01-30T09:23:26;102766.09;;;8.48;61.37
42297;BME280;72430;47.456;19.016;2024-01-30T09:26:28;102751.03;;;8.66;60.52
42297;BME280;72430;47.456;19.016;2024-01-30T09:29:31;102756.03;;;8.53;57.90
42297;BME280;72430;47.456;19.016;2024-01-30T09:32:34;102754.25;;;9.35;56.87
42297;BME280;72430;47.456;19.016;2024-01-30T09:35:36;102751.66;;;10.11;54.33
42297;BME280;72430;47.456;19.016;2024-01-30T09:38:38;102744.47;;;11.33;54.19
42297;BME280;72430;47.456;19.016;2024-01-30T09:42:00;102748.00;;;11.51;48.72
42297;BME280;72430;47.456;19.016;2024-01-30T09:45:04;102747.41;;;12.27;51.19
42297;BME280;72430;47.456;19.016;2024-01-30T09:48:06;102744.00;;;11.75;49.33
42297;BME280;72430;47.456;19.016;2024-01-30T09:51:14;102735.19;;;12.66;48.65
42297;BME280;72430;47.456;19.016;2024-01-30T09:54:16;102735.22;;;13.39;46.14
42297;BME280;72430;47.456;19.016;2024-01-30T09:57:19;102744.00;;;13.42;46.96
42297;BME280;72430;47.456;19.016;2024-01-30T10:00:21;102746.94;;;13.10;44.38
42297;BME280;72430;47.456;19.016;2024-01-30T10:03:27;102758.09;;;11.80;45.49
42297;BME280;72430;47.456;19.016;2024-01-30T10:06:29;102752.84;;;11.28;46.46
42297;BME280;72430;47.456;19.016;2024-01-30T10:09:32;102754.41;;;10.81;48.03
42297;BME280;72430;47.456;19.016;2024-01-30T10:12:35;102760.53;;;10.85;48.18
42297;BME280;72430;47.456;19.016;2024-01-30T10:15:38;102754.50;;;10.62;47.95
42297;BME280;72430;47.456;19.016;2024-01-30T10:18:41;102752.50;;;10.48;48.11
42297;BME280;72430;47.456;19.016;2024-01-30T10:21:46;102748.38;;;10.94;49.07
42297;BME280;72430;47.456;19.016;2024-01-30T10:24:48;102742.69;;;12.30;49.13
42297;BME280;72430;47.456;19.016;2024-01-30T10:27:54;102742.16;;;11.43;47.92
42297;BME280;72430;47.456;19.016;2024-01-30T10:31:00;102745.88;;;10.36;47.54
42297;BME280;72430;47.456;19.016;2024-01-30T10:34:06;102736.69;;;10.59;49.89
42297;BME280;72430;47.456;19.016;2024-01-30T10:37:25;102718.53;;;13.03;47.08
42297;BME280;72430;47.456;19.016;2024-01-30T10:40:28;102719.97;;;13.38;45.38
42297;BME280;72430;47.456;19.016;2024-01-30T10:43:41;102718.91;;;13.11;45.36
42297;BME280;72430;47.456;19.016;2024-01-30T10:46:51;102712.91;;;12.77;44.55
42297;BME280;72430;47.456;19.016;2024-01-30T10:49:57;102704.44;;;13.83;44.04
42297;BME280;72430;47.456;19.016;2024-01-30T10:53:00;102698.66;;;15.47;42.00
42297;BME280;72430;47.456;19.016;2024-01-30T10:56:04;102696.38;;;13.40;41.96
42297;BME280;72430;47.456;19.016;2024-01-30T10:59:07;102690.94;;;12.53;41.90
42297;BME280;72430;47.456;19.016;2024-01-30T11:02:14;102695.44;;;12.83;43.73
42297;BME280;72430;47.456;19.016;2024-01-30T11:05:23;102701.09;;;12.18;44.67
42297;BME280;72430;47.456;19.016;2024-01-30T11:08:33;102685.22;;;13.02;43.47
42297;BME280;72430;47.456;19.016;2024-01-30T11:11:51;102680.16;;;14.76;39.74
42297;BME280;72430;47.456;19.016;2024-01-30T11:15:04;102667.88;;;16.33;38.35
42297;BME280;72430;47.456;19.016;2024-01-30T11:18:07;102664.72;;;15.90;38.18
42297;BME280;72430;47.456;19.016;2024-01-30T11:21:13;102666.72;;;15.13;38.89
42297;BME280;72430;47.456;19.016;2024-01-30T11:24:15;102659.81;;;16.31;37.28
42297;BME280;72430;47.456;19.016;2024-01-30T11:27:17;102652.38;;;16.10;36.70
42297;BME280;72430;47.456;19.016;2024-01-30T11:30:29;102656.00;;;17.71;34.25
42297;BME280;72430;47.456;19.016;2024-01-30T11:33:33;102662.69;;;15.81;34.73
42297;BME280;72430;47.456;19.016;2024-01-30T11:36:37;102662.84;;;15.91;35.67
42297;BME280;72430;47.456;19.016;2024-01-30T11:39:41;102663.44;;;16.07;36.78
42297;BME280;72430;47.456;19.016;2024-01-30T11:42:47;102640.69;;;18.24;33.98
42297;BME280;72430;47.456;19.016;2024-01-30T11:45:49;102634.38;;;18.76;32.88
42297;BME280;72430;47.456;19.016;2024-01-30T11:48:52;102636.44;;;18.84;31.42
42297;BME280;72430;47.456;19.016;2024-01-30T11:51:54;102631.19;;;18.18;35.17
42297;BME280;72430;47.456;19.016;2024-01-30T11:54:56;102620.25;;;19.82;32.06
42297;BME280;72430;47.456;19.016;2024-01-30T11:57:59;102626.16;;;19.48;31.06
42297;BME280;72430;47.456;19.016;2024-01-30T12:01:01;102632.09;;;17.96;33.50
42297;BME280;72430;47.456;19.016;2024-01-30T12:04:04;102612.22;;;19.61;30.02
42297;BME280;72430;47.456;19.016;2024-01-30T12:07:11;102612.44;;;19.18;31.88
42297;BME280;72430;47.456;19.016;2024-01-30T12:10:15;102615.59;;;17.43;32.52
42297;BME280;72430;47.456;19.016;2024-01-30T12:13:17;102587.50;;;19.02;30.29
42297;BME280;72430;47.456;19.016;2024-01-30T12:16:19;102590.91;;;20.24;29.66
42297;BME280;72430;47.456;19.016;2024-01-30T12:19:23;102591.38;;;17.73;31.77
42297;BME280;72430;47.456;19.016;2024-01-30T12:22:25;102583.94;;;18.70;30.23
42297;BME280;72430;47.456;19.016;2024-01-30T12:25:27;102587.28;;;19.15;31.50
42297;BME280;72430;47.456;19.016;2024-01-30T12:28:29;102580.28;;;21.61;29.52
42297;BME280;72430;47.456;19.016;2024-01-30T12:31:32;102581.94;;;21.90;26.63
42297;BME280;72430;47.456;19.016;2024-01-30T12:34:40;102582.84;;;19.34;29.24
42297;BME280;72430;47.456;19.016;2024-01-30T12:37:47;102587.63;;;18.59;28.72
42297;BME280;72430;47.456;19.016;2024-01-30T12:40:49;102590.63;;;18.87;28.82
42297;BME280;72430;47.456;19.016;2024-01-30T12:43:51;102582.97;;;18.71;28.34
42297;BME280;72430;47.456;19.016;2024-01-30T12:46:54;102572.78;;;18.83;28.87
42297;BME280;72430;47.456;19.016;2024-01-30T12:49:56;102574.53;;;19.45;27.61
42297;BME280;72430;47.456;19.016;2024-01-30T12:52:59;102572.69;;;19.55;29.04
42297;BME280;72430;47.456;19.016;2024-01-30T12:56:01;102569.94;;;19.75;27.18
42297;BME280;72430;47.456;19.016;2024-01-30T12:59:03;102551.91;;;20.98;26.74
42297;BME280;72430;47.456;19.016;2024-01-30T13:02:06;102550.09;;;21.06;25.07
42297;BME280;72430;47.456;19.016;2024-01-30T13:05:08;102541.91;;;21.79;26.43
42297;BME280;72430;47.456;19.016;2024-01-30T13:08:10;102549.50;;;21.13;25.35
42297;BME280;72430;47.456;19.016;2024-01-30T13:11:12;102543.16;;;21.67;25.10
42297;BME280;72430;47.456;19.016;2024-01-30T13:14:22;102548.91;;;20.91;25.32
42297;BME280;72430;47.456;19.016;2024-01-30T13:17:23;102544.75;;;20.87;25.43
42297;BME280;72430;47.456;19.016;2024-01-30T13:20:25;102539.59;;;20.74;25.37
42297;BME280;72430;47.456;19.016;2024-01-30T13:23:27;102536.41;;;21.97;23.05
42297;BME280;72430;47.456;19.016;2024-01-30T13:26:31;102534.03;;;21.40;23.95
42297;BME280;72430;47.456;19.016;2024-01-30T13:29:33;102545.34;;;20.05;25.53
42297;BME280;72430;47.456;19.016;2024-01-30T13:32:36;102543.34;;;19.77;24.36
42297;BME280;72430;47.456;19.016;2024-01-30T13:35:38;102553.41;;;18.45;25.93
42297;BME280;72430;47.456;19.016;2024-01-30T13:38:40;102551.94;;;18.72;26.01
42297;BME280;72430;47.456;19.016;2024-01-30T13:41:43;102553.53;;;18.75;26.74
42297;BME280;72430;47.456;19.016;2024-01-30T13:44:44;102553.28;;;17.62;26.59
42297;BME280;72430;47.456;19.016;2024-01-30T13:47:47;102546.09;;;17.16;28.20
42297;BME280;72430;47.456;19.016;2024-01-30T13:50:49;102549.88;;;16.47;28.39
42297;BME280;72430;47.456;19.016;2024-01-30T13:53:51;102543.63;;;17.25;29.21
42297;BME280;72430;47.456;19.016;2024-01-30T13:56:53;102538.59;;;17.20;27.89
42297;BME280;72430;47.456;19.016;2024-01-30T13:59:55;102539.84;;;16.82;28.15
42297;BME280;72430;47.456;19.016;2024-01-30T14:02:58;102538.63;;;16.74;27.97
42297;BME280;72430;47.456;19.016;2024-01-30T14:06:01;102542.13;;;15.59;29.40
42297;BME280;72430;47.456;19.016;2024-01-30T14:09:03;102539.25;;;15.49;30.33
42297;BME280;72430;47.456;19.016;2024-01-30T14:12:09;102531.47;;;16.73;29.46
42297;BME280;72430;47.456;19.016;2024-01-30T14:15:13;102534.28;;;16.15;30.62
42297;BME280;72430;47.456;19.016;2024-01-30T14:18:28;102532.78;;;16.90;29.79
42297;BME280;72430;47.456;19.016;2024-01-30T14:21:30;102533.44;;;16.48;29.69
42297;BME280;72430;47.456;19.016;2024-01-30T14:24:32;102538.88;;;15.05;31.50
42297;BME280;72430;47.456;19.016;2024-01-30T14:27:35;102536.56;;;15.25;31.54
42297;BME280;72430;47.456;19.016;2024-01-30T14:30:37;102534.16;;;15.20;31.09
42297;BME280;72430;47.456;19.016;2024-01-30T14:33:39;102528.34;;;16.09;30.91
42297;BME280;72430;47.456;19.016;2024-01-30T14:36:41;102530.16;;;15.62;30.25
42297;BME280;72430;47.456;19.016;2024-01-30T14:39:43;102524.88;;;15.71;31.68
42297;BME280;72430;47.456;19.016;2024-01-30T14:42:45;102526.25;;;16.24;30.60
42297;BME280;72430;47.456;19.016;2024-01-30T14:45:47;102526.13;;;16.26;30.23
42297;BME280;72430;47.456;19.016;2024-01-30T14:48:51;102532.94;;;14.36;32.03
42297;BME280;72430;47.456;19.016;2024-01-30T14:51:53;102531.00;;;14.13;32.36
42297;BME280;72430;47.456;19.016;2024-01-30T14:54:55;102534.50;;;13.74;32.76
42297;BME280;72430;47.456;19.016;2024-01-30T14:57:57;102532.28;;;12.69;34.16
42297;BME280;72430;47.456;19.016;2024-01-30T15:01:01;102539.03;;;12.04;34.76
42297;BME280;72430;47.456;19.016;2024-01-30T15:04:03;102544.81;;;11.51;35.65
42297;BME280;72430;47.456;19.016;2024-01-30T15:07:05;102539.56;;;11.64;35.64
42297;BME280;72430;47.456;19.016;2024-01-30T15:10:08;102539.22;;;11.07;36.49
42297;BME280;72430;47.456;19.016;2024-01-30T15:13:12;102543.31;;;10.82;36.93
42297;BME280;72430;47.456;19.016;2024-01-30T15:16:14;102545.44;;;10.08;37.27
42297;BME280;72430;47.456;19.016;2024-01-30T15:19:16;102541.84;;;9.54;38.49
42297;BME280;72430;47.456;19.016;2024-01-30T15:22:18;102532.59;;;9.96;38.08
42297;BME280;72430;47.456;19.016;2024-01-30T15:25:20;102539.81;;;9.77;39.32
42297;BME280;72430;47.456;19.016;2024-01-30T15:28:37;102529.13;;;9.93;37.87
42297;BME280;72430;47.456;19.016;2024-01-30T15:31:40;102538.97;;;9.03;40.71
42297;BME280;72430;47.456;19.016;2024-01-30T15:34:42;102539.13;;;9.37;39.03
42297;BME280;72430;47.456;19.016;2024-01-30T15:37:44;102544.78;;;9.13;39.61
42297;BME280;72430;47.456;19.016;2024-01-30T15:40:46;102541.88;;;8.60;42.11
42297;BME280;72430;47.456;19.016;2024-01-30T15:43:47;102545.03;;;8.28;41.69